createdAt,value
2022-12-22T00:11:10.236Z,3.00
2022-12-22T00:16:32.682Z,3.10
2022-12-22T00:21:56.512Z,3.00
2022-12-22T00:27:19.952Z,3.30
2022-12-22T00:32:50.038Z,3.40
2022-12-22T00:38:16.548Z,3.60
2022-12-22T00:43:57.787Z,3.70
2022-12-22T00:49:26.509Z,3.70
2022-12-22T00:55:04.775Z,3.60
2022-12-22T01:00:39.452Z,3.80
2022-12-22T01:06:08.592Z,3.70
2022-12-22T01:11:36.030Z,3.90
2022-12-22T01:16:58.037Z,4.20
2022-12-22T01:22:19.790Z,4.30
2022-12-22T01:27:43.384Z,4.40
2022-12-22T01:33:05.434Z,4.60
2022-12-22T01:38:27.195Z,4.70
2022-12-22T01:43:51.793Z,4.90
2022-12-22T01:49:13.529Z,5.10
2022-12-22T01:54:35.590Z,5.20
2022-12-22T01:59:58.765Z,5.20
2022-12-22T02:05:22.800Z,5.20
2022-12-22T02:11:08.853Z,5.30
2022-12-22T02:16:41.154Z,5.40
2022-12-22T02:22:13.039Z,5.50
2022-12-22T02:27:37.372Z,5.60
2022-12-22T02:33:09.255Z,5.70
2022-12-22T02:38:42.544Z,5.70
2022-12-22T02:44:21.840Z,5.80
2022-12-22T02:49:49.264Z,5.90
2022-12-22T02:55:11.512Z,5.80
2022-12-22T03:00:35.243Z,6.00
2022-12-22T03:05:57.266Z,6.00
2022-12-22T03:11:19.218Z,6.00
2022-12-22T03:16:42.290Z,6.00
2022-12-22T03:22:04.469Z,6.10
2022-12-22T03:27:07.650Z,5.90
2022-12-22T03:32:12.196Z,6.10
2022-12-22T03:37:15.418Z,6.10
2022-12-22T03:42:37.554Z,6.00
2022-12-22T03:47:42.146Z,6.00
2022-12-22T03:52:45.640Z,6.10
2022-12-22T03:57:48.905Z,6.10
2022-12-22T04:02:53.599Z,6.20
2022-12-22T04:07:56.824Z,6.30
2022-12-22T04:13:00.086Z,6.50
2022-12-22T04:18:04.973Z,6.40
2022-12-22T04:23:08.226Z,6.50
2022-12-22T04:28:11.477Z,6.50
2022-12-22T04:33:16.035Z,6.50
2022-12-22T04:38:19.293Z,6.60
2022-12-22T04:43:22.462Z,6.60
2022-12-22T04:48:28.321Z,6.60
2022-12-22T04:53:32.456Z,6.60
2022-12-22T04:58:36.151Z,6.60
2022-12-22T05:03:40.926Z,6.70
2022-12-22T05:08:44.344Z,6.60
2022-12-22T05:13:47.476Z,6.60
2022-12-22T05:18:52.078Z,6.60
2022-12-22T05:23:55.235Z,6.50
2022-12-22T05:28:58.488Z,6.60
2022-12-22T05:34:03.123Z,6.60
2022-12-22T05:39:06.437Z,6.60
2022-12-22T05:44:09.661Z,6.70
2022-12-22T05:49:14.599Z,6.70
2022-12-22T05:54:17.883Z,6.70
2022-12-22T05:59:21.228Z,6.80
2022-12-22T06:04:25.832Z,6.80
2022-12-22T06:09:29.505Z,6.70
2022-12-22T06:14:33.049Z,6.80
2022-12-22T06:19:37.792Z,6.70
2022-12-22T06:24:41.024Z,6.70
2022-12-22T06:29:44.429Z,6.80
2022-12-22T06:34:49.240Z,6.80
2022-12-22T06:39:52.542Z,6.90
2022-12-22T06:44:55.760Z,6.70
2022-12-22T06:50:00.909Z,6.80
2022-12-22T06:55:05.206Z,7.00
2022-12-22T07:00:09.952Z,7.00
2022-12-22T07:05:15.841Z,6.90
2022-12-22T07:10:39.817Z,6.80
2022-12-22T07:15:43.207Z,7.00
2022-12-22T07:20:47.838Z,7.00
2022-12-22T07:25:51.207Z,6.90
2022-12-22T07:30:55.290Z,6.90
2022-12-22T07:36:05.837Z,7.00
2022-12-22T07:41:29.475Z,6.90
2022-12-22T07:46:35.772Z,7.10
2022-12-22T07:51:42.020Z,7.10
2022-12-22T07:56:47.781Z,7.00
2022-12-22T08:01:51.149Z,7.10
2022-12-22T08:06:56.231Z,7.20
2022-12-22T08:11:59.468Z,7.10
2022-12-22T08:17:02.884Z,7.20
2022-12-22T08:22:08.076Z,7.30
2022-12-22T08:27:19.547Z,7.30
2022-12-22T08:32:27.486Z,7.40
2022-12-22T08:37:41.069Z,7.40
2022-12-22T08:42:45.240Z,7.50
2022-12-22T08:47:48.600Z,7.50
2022-12-22T08:52:53.209Z,7.50
2022-12-22T08:57:56.539Z,7.60
2022-12-22T09:02:59.875Z,7.70
2022-12-22T09:08:54.629Z,7.60
2022-12-22T09:14:00.717Z,7.70
2022-12-22T09:19:04.474Z,7.80
2022-12-22T09:24:08.450Z,7.80
2022-12-22T09:29:15.442Z,7.90
2022-12-22T09:34:19.023Z,7.90
2022-12-22T09:39:28.421Z,8.00
2022-12-22T09:44:37.168Z,8.00
2022-12-22T09:49:41.210Z,8.00
2022-12-22T09:54:44.589Z,8.10
2022-12-22T09:59:49.296Z,8.20
2022-12-22T10:05:18.902Z,8.30
2022-12-22T10:10:27.875Z,8.30
2022-12-22T10:15:38.412Z,8.30
2022-12-22T10:20:44.741Z,8.40
2022-12-22T10:31:32.135Z,8.30
2022-12-22T10:36:36.609Z,8.20
2022-12-22T10:41:43.707Z,8.30
2022-12-22T10:46:50.332Z,8.20
2022-12-22T10:51:55.895Z,8.20
2022-12-22T10:57:01.909Z,8.30
2022-12-22T11:02:29.119Z,8.20
2022-12-22T11:07:35.949Z,8.20
2022-12-22T11:13:04.922Z,8.30
2022-12-22T11:18:24.875Z,8.30
2022-12-22T11:23:35.142Z,8.40
2022-12-22T11:28:57.729Z,8.60
2022-12-22T11:34:19.107Z,8.70
2022-12-22T11:39:37.700Z,8.60
2022-12-22T11:44:48.031Z,8.60
2022-12-22T11:50:58.771Z,8.60
2022-12-22T11:55:52.751Z,8.60
2022-12-22T12:01:24.157Z,8.60
2022-12-22T12:06:45.529Z,8.60
2022-12-22T12:11:55.582Z,8.70
2022-12-22T12:17:02.960Z,8.80
2022-12-22T12:22:12.310Z,8.80
2022-12-22T12:27:29.431Z,8.90
2022-12-22T12:32:40.619Z,8.70
2022-12-22T12:37:49.590Z,8.60
2022-12-22T12:42:54.091Z,8.60
2022-12-22T12:48:36.240Z,8.70
2022-12-22T12:54:19.322Z,8.60
2022-12-22T12:59:48.177Z,8.50
2022-12-22T13:05:36.329Z,8.40
2022-12-22T13:10:44.297Z,8.40
2022-12-22T13:15:49.650Z,8.40
2022-12-22T13:20:53.658Z,8.30
2022-12-22T13:26:02.449Z,8.30
2022-12-22T13:31:14.084Z,8.30
2022-12-22T13:36:20.216Z,8.30
2022-12-22T13:41:27.623Z,8.30
2022-12-22T13:46:34.182Z,8.30
2022-12-22T13:51:39.053Z,8.30
2022-12-22T13:56:46.494Z,8.30
2022-12-22T14:01:51.196Z,8.30
2022-12-22T14:06:55.147Z,8.30
2022-12-22T14:12:08.436Z,8.30
2022-12-22T14:17:21.179Z,8.30
2022-12-22T14:22:27.538Z,8.40
2022-12-22T14:27:37.240Z,8.40
2022-12-22T14:32:42.345Z,8.40
2022-12-22T14:37:45.989Z,8.40
2022-12-22T14:42:50.846Z,8.50
2022-12-22T14:47:55.220Z,8.60
2022-12-22T14:53:00.334Z,8.50
2022-12-22T14:58:10.776Z,8.40
2022-12-22T15:03:31.245Z,8.40
2022-12-22T15:08:39.048Z,8.50
2022-12-22T15:13:47.084Z,8.40
2022-12-22T15:18:52.111Z,8.40
2022-12-22T15:23:55.439Z,8.40
2022-12-22T15:29:00.231Z,8.40
2022-12-22T15:34:07.422Z,8.40
2022-12-22T15:39:14.973Z,8.50
2022-12-22T15:44:19.725Z,8.60
2022-12-22T15:49:25.642Z,8.60
2022-12-22T15:54:33.160Z,8.60
2022-12-22T15:59:37.923Z,8.60
2022-12-22T16:04:41.207Z,8.50
2022-12-22T16:09:45.929Z,8.50
2022-12-22T16:14:53.885Z,8.40
2022-12-22T16:19:57.060Z,8.30
2022-12-22T16:25:02.514Z,8.30
2022-12-22T16:30:12.004Z,8.20
2022-12-22T16:35:17.493Z,8.10
2022-12-22T16:40:21.115Z,7.90
2022-12-22T16:45:28.852Z,7.70
2022-12-22T16:50:33.690Z,7.80
2022-12-22T16:55:37.050Z,7.80
2022-12-22T17:00:43.972Z,7.70
2022-12-22T17:05:51.040Z,7.70
2022-12-22T17:10:57.967Z,7.80
2022-12-22T17:16:02.875Z,7.80
2022-12-22T17:21:06.409Z,7.80
2022-12-22T17:26:12.683Z,7.70
2022-12-22T17:31:19.980Z,7.60
2022-12-22T17:36:30.997Z,7.60
2022-12-22T17:41:34.303Z,7.20
2022-12-22T17:46:39.121Z,7.20
2022-12-22T17:51:42.981Z,7.10
2022-12-22T17:56:46.357Z,6.90
2022-12-22T18:01:51.010Z,6.40
2022-12-22T18:06:56.170Z,6.30
2022-12-22T18:11:59.393Z,6.30
2022-12-22T18:17:04.151Z,6.40
2022-12-22T18:22:14.680Z,6.20
2022-12-22T18:27:19.090Z,6.50
2022-12-22T18:32:27.890Z,6.50
2022-12-22T18:37:31.435Z,6.50
2022-12-22T18:42:34.884Z,6.40
2022-12-22T18:47:39.570Z,5.90
2022-12-22T18:52:43.648Z,5.70
2022-12-22T18:57:48.355Z,5.50
2022-12-22T19:02:54.820Z,5.20
2022-12-22T19:07:59.021Z,5.00
2022-12-22T19:13:04.450Z,4.80
2022-12-22T19:18:13.657Z,4.60
2022-12-22T19:23:20.474Z,4.50
2022-12-22T19:28:28.331Z,4.40
2022-12-22T19:33:36.182Z,4.30
2022-12-22T19:38:39.723Z,4.20
2022-12-22T19:43:42.935Z,4.10
2022-12-22T19:48:47.556Z,3.90
2022-12-22T19:53:50.791Z,3.80
2022-12-22T19:58:55.676Z,3.70
2022-12-22T20:04:00.225Z,3.60
2022-12-22T20:09:04.006Z,3.50
2022-12-22T20:14:09.929Z,3.40
2022-12-22T20:19:15.352Z,3.50
2022-12-22T20:24:22.477Z,3.60
2022-12-22T20:29:25.826Z,3.60
2022-12-22T20:34:30.411Z,3.50
2022-12-22T20:39:33.636Z,3.60
2022-12-22T20:44:36.871Z,3.70
2022-12-22T20:49:42.764Z,3.70
2022-12-22T20:54:46.613Z,3.90
2022-12-22T21:07:24.535Z,3.90
2022-12-22T21:12:27.843Z,3.80
2022-12-22T21:17:31.202Z,3.90
2022-12-22T21:22:35.903Z,3.90
2022-12-22T21:27:41.117Z,3.90
2022-12-22T21:32:44.374Z,4.20
2022-12-22T21:37:51.305Z,4.50
2022-12-22T21:42:55.013Z,4.60
2022-12-22T21:48:00.949Z,4.60
2022-12-22T21:53:05.675Z,4.60
2022-12-22T21:58:12.498Z,4.60
2022-12-22T22:03:16.576Z,4.60
2022-12-22T22:08:21.331Z,4.70
2022-12-22T22:13:24.685Z,4.70
2022-12-22T22:18:27.946Z,4.80
2022-12-22T22:23:32.508Z,5.00
2022-12-22T22:28:36.117Z,5.00
2022-12-22T22:33:39.409Z,4.80
2022-12-22T22:38:43.896Z,4.50
2022-12-22T22:43:47.266Z,4.30
2022-12-22T22:48:50.602Z,4.10
2022-12-22T22:53:55.098Z,4.20
2022-12-22T22:58:58.957Z,4.10
2022-12-22T23:04:02.330Z,4.30
2022-12-22T23:09:07.283Z,4.40
2022-12-22T23:14:10.876Z,4.50
2022-12-22T23:19:14.179Z,4.40
2022-12-22T23:24:18.738Z,4.50
2022-12-22T23:29:22.534Z,4.60
2022-12-22T23:34:25.803Z,4.60
2022-12-22T23:39:30.318Z,4.60
2022-12-22T23:44:33.712Z,4.60
2022-12-22T23:49:37.052Z,4.50
2022-12-22T23:54:41.619Z,4.60
2022-12-22T23:59:44.866Z,4.60
